Главная страница
METAR-TAF:

METAR-TAF

Аэропорты :

Кувейт, Кувейт

широта: 29-13N, долгота: 047-59E, высота над уровнем моря: 55 м

Текущие метеонаблюдения

Эта сводка был подготовлена 1 час и 7 минут назад, в 10:00 UTC
Ветер 10 Узел от северо-северо-восточный
Температура 42°C
Влажность 11%
Давление 1008 hPa
Видимость 10 км и более
Нет облачности ниже 1500 м, и нет кучево-дождевой облачности

METAR: OKBK 241000Z 02010KT CAVOK 42/06 Q1008 NOSIG

Время: 14:07 (11:07 UTC)

Прогноз

Эта сводка был подготовлена 6 часа и 22 минут назад, в 04:45 UTC
Прогноз действительный с 24-го 06 UTC до 25-го 12 UTC
Ветер 3 Узел переменных направлений
Видимость: 7000 м
изменения
С 24-го 07 UTC до 24-го 09 UTC
Ветер 12 Узел от северный

TAF: OKBK 240445Z 2406/2512 VRB03KT 7000 NSC BECMG 2407/2409 35012KT

Метеонаблюдения и прогнозы для более 4000 аэропортов (сводки METAR и TAF).

Имеющиеся станции представлены на карте желтыми и красными точками.

Чтобы увидеть название станции, наведите на нее мышь.

Затем щелкните, чтобы увидеть метеонаблюдения и метеопрогнозы.

Управление картой: чтобы увеличить масштаб, щелкните зеленые кнопки с черным крестиком; чтобы уменьшить масштаб, щелкните зеленую кнопку с тире; для просмотра соседних карт щелкайте зеленые стрелки.


METAR-TAF: